createdAt,value
2022-11-08T00:03:16.094Z,7200.00
2022-11-08T00:08:23.276Z,7236.00
2022-11-08T00:13:30.474Z,-1188.00
2022-11-08T00:18:37.665Z,-1188.00
2022-11-08T00:23:44.863Z,-1188.00
2022-11-08T00:28:52.055Z,-1188.00
2022-11-08T00:33:59.273Z,-1224.00
2022-11-08T00:39:06.542Z,-1152.00
2022-11-08T00:44:13.766Z,-1152.00
2022-11-08T00:49:20.991Z,-1152.00
2022-11-08T00:54:28.186Z,-1152.00
2022-11-08T00:59:35.424Z,-1152.00
2022-11-08T01:04:42.611Z,-1224.00
2022-11-08T01:09:49.844Z,-1188.00
2022-11-08T01:14:57.078Z,-1152.00
2022-11-08T01:20:04.201Z,-1152.00
2022-11-08T01:25:11.367Z,-1152.00
2022-11-08T01:30:18.564Z,-1152.00
2022-11-08T01:35:25.763Z,-1116.00
2022-11-08T01:40:33.185Z,-1152.00
2022-11-08T01:45:40.335Z,-1188.00
2022-11-08T01:50:47.552Z,-1188.00
2022-11-08T01:55:54.816Z,-1152.00
2022-11-08T02:01:02.100Z,-1188.00
2022-11-08T02:06:09.259Z,-1152.00
2022-11-08T02:11:16.428Z,-1152.00
2022-11-08T02:16:23.656Z,-1152.00
2022-11-08T02:21:30.891Z,-1152.00
2022-11-08T02:26:38.102Z,-1188.00
2022-11-08T02:31:45.257Z,-1152.00
2022-11-08T02:36:52.473Z,-1152.00
2022-11-08T02:41:59.717Z,-1152.00
2022-11-08T02:47:06.905Z,-1152.00
2022-11-08T02:52:14.111Z,-1188.00
2022-11-08T02:57:21.339Z,-1188.00
2022-11-08T03:02:28.652Z,-1152.00
2022-11-08T03:07:35.775Z,-1188.00
2022-11-08T03:12:43.144Z,-1188.00
2022-11-08T03:17:50.204Z,-1152.00
2022-11-08T03:22:57.437Z,-1152.00
2022-11-08T03:28:04.718Z,-1188.00
2022-11-08T03:33:11.949Z,-1152.00
2022-11-08T03:38:19.470Z,-1188.00
2022-11-08T03:43:26.370Z,-1152.00
2022-11-08T03:48:33.563Z,-1188.00
2022-11-08T03:53:40.878Z,-1188.00
2022-11-08T03:58:48.100Z,-1152.00
2022-11-08T04:03:55.218Z,-1152.00
2022-11-08T04:09:02.493Z,-1152.00
2022-11-08T04:14:09.710Z,-1152.00
2022-11-08T04:19:16.902Z,-1152.00
2022-11-08T04:24:24.107Z,-1152.00
2022-11-08T04:29:31.323Z,-1152.00
2022-11-08T04:34:38.502Z,-1152.00
2022-11-08T04:39:45.671Z,-1152.00
2022-11-08T04:44:52.919Z,-1152.00
2022-11-08T04:50:00.129Z,-1152.00
2022-11-08T04:55:07.326Z,-1152.00
2022-11-08T05:00:14.686Z,-1152.00
2022-11-08T05:05:21.753Z,-1152.00
2022-11-08T05:10:28.956Z,-1152.00
2022-11-08T05:15:36.226Z,-1152.00
2022-11-08T05:20:43.390Z,-1152.00
2022-11-08T05:25:50.571Z,-1152.00
2022-11-08T05:30:57.813Z,-1152.00
2022-11-08T05:36:06.332Z,-1152.00
2022-11-08T05:41:12.920Z,-1152.00
2022-11-08T05:46:20.330Z,-1152.00
2022-11-08T05:51:27.562Z,-1152.00
2022-11-08T05:56:34.852Z,-1152.00
2022-11-08T06:01:42.241Z,-1152.00
2022-11-08T06:06:49.369Z,-1188.00
2022-11-08T06:11:56.633Z,-1152.00
2022-11-08T06:17:03.915Z,-1152.00
2022-11-08T06:22:11.351Z,-1152.00
2022-11-08T06:27:18.571Z,-1152.00
2022-11-08T06:32:25.802Z,-1116.00
2022-11-08T06:37:33.020Z,-1152.00
2022-11-08T06:42:40.250Z,-1152.00
2022-11-08T06:47:47.531Z,-1116.00
2022-11-08T06:52:54.683Z,6696.00
2022-11-08T06:58:01.870Z,8064.00
2022-11-08T07:03:09.215Z,10008.00
2022-11-08T07:08:22.282Z,10656.00
2022-11-08T07:13:23.487Z,11088.00
2022-11-08T07:18:30.825Z,12096.00
2022-11-08T07:23:37.899Z,12132.00
2022-11-08T07:28:45.120Z,11448.00
2022-11-08T07:33:52.330Z,12168.00
2022-11-08T07:39:03.832Z,10656.00
2022-11-08T07:44:06.761Z,9252.00
2022-11-08T07:49:14.047Z,9432.00
2022-11-08T07:54:21.240Z,8352.00
2022-11-08T07:59:28.394Z,8496.00
2022-11-08T08:04:35.609Z,9252.00
2022-11-08T08:09:42.841Z,8820.00
2022-11-08T08:14:50.044Z,11304.00
2022-11-08T08:19:57.297Z,11700.00
2022-11-08T08:25:04.472Z,12240.00
2022-11-08T08:30:11.698Z,12816.00
2022-11-08T08:35:18.964Z,12816.00
2022-11-08T08:40:26.323Z,12924.00
2022-11-08T08:45:33.487Z,13392.00
2022-11-08T08:50:40.769Z,13392.00
2022-11-08T08:55:47.909Z,13716.00
2022-11-08T09:06:02.326Z,12888.00
2022-11-08T09:11:09.476Z,13464.00
2022-11-08T09:16:16.746Z,14976.00
2022-11-08T09:21:24.137Z,15084.00
2022-11-08T09:26:31.242Z,14508.00
2022-11-08T09:31:38.458Z,13860.00
2022-11-08T09:36:45.739Z,14004.00
2022-11-08T09:41:55.484Z,11808.00
2022-11-08T09:47:00.225Z,14508.00
2022-11-08T09:52:07.492Z,14616.00
2022-11-08T09:57:14.612Z,14868.00
2022-11-08T10:02:21.958Z,14652.00
2022-11-08T10:07:29.221Z,16200.00
2022-11-08T10:12:36.503Z,16740.00
2022-11-08T10:17:43.733Z,16452.00
2022-11-08T10:22:50.957Z,15336.00
2022-11-08T10:27:58.183Z,14436.00
2022-11-08T10:33:05.492Z,15120.00
2022-11-08T10:38:12.786Z,15012.00
2022-11-08T10:43:20.352Z,15732.00
2022-11-08T10:48:27.159Z,15408.00
2022-11-08T10:53:34.434Z,15588.00
2022-11-08T10:58:41.676Z,15336.00
2022-11-08T11:03:48.838Z,15156.00
2022-11-08T11:08:56.069Z,15048.00
2022-11-08T11:14:03.275Z,15408.00
2022-11-08T11:19:10.505Z,15336.00
2022-11-08T11:24:19.322Z,15408.00
2022-11-08T11:29:25.082Z,15408.00
2022-11-08T11:34:32.475Z,15372.00
2022-11-08T11:39:39.742Z,15012.00
2022-11-08T11:44:46.937Z,15624.00
2022-11-08T11:49:54.168Z,16272.00
2022-11-08T11:55:01.480Z,16920.00
2022-11-08T12:00:08.712Z,18504.00
2022-11-08T12:05:15.935Z,16524.00
2022-11-08T12:10:23.224Z,15084.00
2022-11-08T12:15:30.404Z,15120.00
2022-11-08T12:20:37.609Z,14760.00
2022-11-08T12:25:44.799Z,14688.00
2022-11-08T12:30:52.029Z,13248.00
2022-11-08T12:35:59.222Z,12168.00
2022-11-08T12:41:06.513Z,11700.00
2022-11-08T12:46:13.738Z,14220.00
2022-11-08T12:51:20.956Z,13392.00
2022-11-08T12:56:28.192Z,14904.00
2022-11-08T13:01:35.459Z,14508.00
2022-11-08T13:06:42.795Z,14868.00
2022-11-08T13:11:50.050Z,16416.00
2022-11-08T13:16:57.291Z,14544.00
2022-11-08T13:22:04.567Z,11592.00
2022-11-08T13:27:12.029Z,11016.00
2022-11-08T13:32:19.524Z,11664.00
2022-11-08T13:37:26.704Z,12672.00
2022-11-08T13:42:34.334Z,14400.00
2022-11-08T13:47:41.462Z,13212.00
2022-11-08T13:52:48.768Z,12852.00
2022-11-08T13:57:55.990Z,10260.00
2022-11-08T14:03:03.145Z,10152.00
2022-11-08T14:08:10.457Z,10368.00
2022-11-08T14:13:18.197Z,9612.00
2022-11-08T14:18:24.940Z,9684.00
2022-11-08T14:23:32.123Z,9288.00
2022-11-08T14:28:39.313Z,9000.00
2022-11-08T14:33:46.464Z,8460.00
2022-11-08T14:38:53.976Z,8136.00
2022-11-08T14:44:01.303Z,8784.00
2022-11-08T14:49:08.493Z,9684.00
2022-11-08T14:54:15.747Z,8496.00
2022-11-08T14:59:23.225Z,7488.00
2022-11-08T15:04:30.537Z,6408.00
2022-11-08T15:09:38.327Z,6444.00
2022-11-08T15:14:45.849Z,5508.00
2022-11-08T15:19:53.101Z,4752.00
2022-11-08T15:25:01.485Z,3924.00
2022-11-08T15:30:08.664Z,2736.00
2022-11-08T15:35:16.115Z,1980.00
2022-11-08T15:40:23.534Z,1404.00
2022-11-08T15:45:30.711Z,792.00
2022-11-08T15:50:37.919Z,108.00
2022-11-08T15:55:45.418Z,-396.00
2022-11-08T16:00:53.160Z,-684.00
2022-11-08T16:06:00.772Z,-900.00
2022-11-08T16:11:08.473Z,-1116.00
2022-11-08T16:16:16.108Z,-1116.00
2022-11-08T16:21:23.797Z,-1116.00
2022-11-08T16:26:31.346Z,-1152.00
2022-11-08T16:31:38.824Z,-1152.00
2022-11-08T16:36:45.890Z,-1152.00
2022-11-08T16:41:55.689Z,-1152.00
2022-11-08T16:47:03.223Z,-1152.00
2022-11-08T16:52:10.540Z,-1152.00
2022-11-08T16:57:34.318Z,-1188.00
2022-11-08T17:02:25.515Z,-1116.00
2022-11-08T17:07:32.626Z,-1152.00
2022-11-08T17:12:39.872Z,-1152.00
2022-11-08T17:17:47.155Z,-1152.00
2022-11-08T17:22:54.656Z,-1152.00
2022-11-08T17:28:02.317Z,-1152.00
2022-11-08T17:33:09.807Z,-1116.00
2022-11-08T17:38:20.164Z,-1152.00
2022-11-08T17:43:27.794Z,-1152.00
2022-11-08T17:48:35.457Z,-1152.00
2022-11-08T17:53:43.118Z,-1152.00
2022-11-08T17:58:50.419Z,-1152.00
2022-11-08T18:03:58.050Z,-1152.00
2022-11-08T18:09:05.698Z,-1152.00
2022-11-08T18:14:13.356Z,-1152.00
2022-11-08T18:19:22.023Z,-1152.00
2022-11-08T18:24:29.324Z,-1152.00
2022-11-08T18:29:36.825Z,-1152.00
2022-11-08T18:34:44.462Z,-1152.00
2022-11-08T18:39:52.052Z,-1152.00
2022-11-08T18:45:00.100Z,-1152.00
2022-11-08T18:50:07.909Z,-1152.00
2022-11-08T18:55:15.517Z,-1152.00
2022-11-08T19:00:23.322Z,-1116.00
2022-11-08T19:05:31.067Z,-1152.00
2022-11-08T19:10:38.380Z,-1152.00
2022-11-08T19:15:45.753Z,-1152.00
2022-11-08T19:20:53.546Z,-1152.00
2022-11-08T19:26:01.901Z,-1152.00
2022-11-08T19:31:10.299Z,504.00
2022-11-08T19:36:19.005Z,432.00
2022-11-08T19:41:26.700Z,720.00
2022-11-08T19:46:34.420Z,720.00
2022-11-08T19:51:42.048Z,5112.00
2022-11-08T19:57:04.217Z,4716.00
2022-11-08T20:01:58.546Z,4968.00
2022-11-08T20:07:06.227Z,4932.00
2022-11-08T20:12:13.922Z,5004.00
2022-11-08T20:17:21.639Z,4680.00
2022-11-08T20:22:29.267Z,4716.00
2022-11-08T20:27:36.702Z,4788.00
2022-11-08T20:32:44.268Z,4824.00
2022-11-08T20:37:51.904Z,4824.00
2022-11-08T20:42:59.606Z,4788.00
2022-11-08T20:48:07.166Z,4896.00
2022-11-08T20:53:15.039Z,4824.00
2022-11-08T20:58:22.620Z,4860.00
2022-11-08T21:03:30.103Z,4572.00
2022-11-08T21:13:47.333Z,4572.00
2022-11-08T21:18:54.948Z,4644.00
2022-11-08T21:24:02.350Z,4104.00
2022-11-08T21:29:10.078Z,4068.00
2022-11-08T21:34:17.810Z,4536.00
2022-11-08T21:39:25.888Z,4572.00
2022-11-08T21:44:33.326Z,4644.00
2022-11-08T21:49:40.724Z,4500.00
2022-11-08T21:54:47.881Z,4464.00
2022-11-08T21:59:55.010Z,4392.00
2022-11-08T22:05:02.240Z,4500.00
2022-11-08T22:11:58.644Z,4500.00
2022-11-08T22:17:05.835Z,4428.00
2022-11-08T22:22:13.061Z,4500.00
2022-11-08T22:27:21.281Z,4536.00
2022-11-08T22:32:28.579Z,4536.00
2022-11-08T22:37:35.801Z,4428.00
2022-11-08T22:42:43.064Z,5076.00
2022-11-08T22:50:54.955Z,4932.00
2022-11-08T22:56:06.958Z,4896.00
2022-11-08T23:01:09.524Z,4932.00
2022-11-08T23:06:16.727Z,4968.00
2022-11-08T23:11:23.922Z,4932.00
2022-11-08T23:16:31.181Z,4752.00
2022-11-08T23:21:38.325Z,4788.00
2022-11-08T23:26:45.508Z,4968.00
2022-11-08T23:31:52.803Z,5004.00
2022-11-08T23:36:59.944Z,4572.00
2022-11-08T23:42:07.084Z,5040.00
2022-11-08T23:47:14.243Z,4896.00
2022-11-08T23:52:21.399Z,4860.00
2022-11-08T23:57:28.570Z,4968.00
